sensor_id;sensor_type;location;lat;lon;timestamp;P1;durP1;ratioP1;P2;durP2;ratioP2
34196;SDS011;36594;45.192;5.722;2023-04-25T00:00:43;0.30;;;0.30;;
34196;SDS011;36594;45.192;5.722;2023-04-25T00:03:32;0.37;;;0.37;;
34196;SDS011;36594;45.192;5.722;2023-04-25T00:06:22;0.30;;;0.30;;
34196;SDS011;36594;45.192;5.722;2023-04-25T00:09:12;0.30;;;0.30;;
34196;SDS011;36594;45.192;5.722;2023-04-25T00:12:00;1.00;;;0.20;;
34196;SDS011;36594;45.192;5.722;2023-04-25T00:14:49;0.20;;;0.20;;
34196;SDS011;36594;45.192;5.722;2023-04-25T00:17:39;0.30;;;0.30;;
34196;SDS011;36594;45.192;5.722;2023-04-25T00:20:27;0.30;;;0.30;;
34196;SDS011;36594;45.192;5.722;2023-04-25T00:23:16;0.35;;;0.35;;
34196;SDS011;36594;45.192;5.722;2023-04-25T00:26:05;0.20;;;0.20;;
34196;SDS011;36594;45.192;5.722;2023-04-25T00:28:54;0.30;;;0.30;;
34196;SDS011;36594;45.192;5.722;2023-04-25T00:31:42;0.25;;;0.25;;
34196;SDS011;36594;45.192;5.722;2023-04-25T00:34:31;0.30;;;0.20;;
34196;SDS011;36594;45.192;5.722;2023-04-25T00:37:19;0.30;;;0.30;;
34196;SDS011;36594;45.192;5.722;2023-04-25T00:40:08;0.30;;;0.30;;
34196;SDS011;36594;45.192;5.722;2023-04-25T00:42:57;0.42;;;0.42;;
34196;SDS011;36594;45.192;5.722;2023-04-25T00:45:46;0.20;;;0.20;;
34196;SDS011;36594;45.192;5.722;2023-04-25T00:48:37;0.30;;;0.30;;
34196;SDS011;36594;45.192;5.722;2023-04-25T00:51:25;0.20;;;0.20;;
34196;SDS011;36594;45.192;5.722;2023-04-25T00:54:14;0.30;;;0.30;;
34196;SDS011;36594;45.192;5.722;2023-04-25T00:57:04;1.20;;;0.40;;
34196;SDS011;36594;45.192;5.722;2023-04-25T00:59:53;0.20;;;0.20;;
34196;SDS011;36594;45.192;5.722;2023-04-25T01:02:43;0.45;;;0.45;;
34196;SDS011;36594;45.192;5.722;2023-04-25T01:05:32;0.30;;;0.30;;
34196;SDS011;36594;45.192;5.722;2023-04-25T01:08:21;0.30;;;0.30;;
34196;SDS011;36594;45.192;5.722;2023-04-25T01:11:12;0.30;;;0.30;;
34196;SDS011;36594;45.192;5.722;2023-04-25T01:14:01;0.30;;;0.30;;
34196;SDS011;36594;45.192;5.722;2023-04-25T01:16:50;0.23;;;0.23;;
34196;SDS011;36594;45.192;5.722;2023-04-25T01:19:39;0.20;;;0.20;;
34196;SDS011;36594;45.192;5.722;2023-04-25T01:22:28;0.27;;;0.27;;
34196;SDS011;36594;45.192;5.722;2023-04-25T01:25:17;0.20;;;0.20;;
34196;SDS011;36594;45.192;5.722;2023-04-25T01:28:07;0.37;;;0.37;;
34196;SDS011;36594;45.192;5.722;2023-04-25T01:30:56;0.30;;;0.30;;
34196;SDS011;36594;45.192;5.722;2023-04-25T01:33:45;0.20;;;0.20;;
34196;SDS011;36594;45.192;5.722;2023-04-25T01:36:34;0.25;;;0.25;;
34196;SDS011;36594;45.192;5.722;2023-04-25T01:39:23;0.30;;;0.30;;
34196;SDS011;36594;45.192;5.722;2023-04-25T01:42:12;0.20;;;0.20;;
34196;SDS011;36594;45.192;5.722;2023-04-25T01:45:01;0.20;;;0.20;;
34196;SDS011;36594;45.192;5.722;2023-04-25T01:47:49;0.40;;;0.40;;
34196;SDS011;36594;45.192;5.722;2023-04-25T01:50:38;0.20;;;0.20;;
34196;SDS011;36594;45.192;5.722;2023-04-25T01:53:28;0.35;;;0.35;;
34196;SDS011;36594;45.192;5.722;2023-04-25T01:56:19;0.35;;;0.35;;
34196;SDS011;36594;45.192;5.722;2023-04-25T01:59:07;0.20;;;0.20;;
34196;SDS011;36594;45.192;5.722;2023-04-25T02:01:57;0.20;;;0.20;;
34196;SDS011;36594;45.192;5.722;2023-04-25T02:04:47;0.30;;;0.30;;
34196;SDS011;36594;45.192;5.722;2023-04-25T02:07:36;0.30;;;0.30;;
34196;SDS011;36594;45.192;5.722;2023-04-25T02:10:25;0.20;;;0.20;;
34196;SDS011;36594;45.192;5.722;2023-04-25T02:13:30;0.20;;;0.20;;
34196;SDS011;36594;45.192;5.722;2023-04-25T02:16:23;0.30;;;0.30;;
34196;SDS011;36594;45.192;5.722;2023-04-25T02:19:12;0.20;;;0.20;;
34196;SDS011;36594;45.192;5.722;2023-04-25T02:22:00;0.40;;;0.40;;
34196;SDS011;36594;45.192;5.722;2023-04-25T02:24:49;0.40;;;0.30;;
34196;SDS011;36594;45.192;5.722;2023-04-25T02:27:37;0.20;;;0.20;;
34196;SDS011;36594;45.192;5.722;2023-04-25T02:30:27;0.40;;;0.35;;
34196;SDS011;36594;45.192;5.722;2023-04-25T02:33:15;0.85;;;0.45;;
34196;SDS011;36594;45.192;5.722;2023-04-25T02:36:04;0.60;;;0.40;;
34196;SDS011;36594;45.192;5.722;2023-04-25T02:38:53;0.30;;;0.30;;
34196;SDS011;36594;45.192;5.722;2023-04-25T02:41:41;0.30;;;0.30;;
34196;SDS011;36594;45.192;5.722;2023-04-25T02:44:30;0.20;;;0.20;;
34196;SDS011;36594;45.192;5.722;2023-04-25T02:47:18;0.30;;;0.30;;
34196;SDS011;36594;45.192;5.722;2023-04-25T02:50:07;0.20;;;0.20;;
34196;SDS011;36594;45.192;5.722;2023-04-25T02:52:56;0.28;;;0.28;;
34196;SDS011;36594;45.192;5.722;2023-04-25T02:55:46;0.30;;;0.30;;
34196;SDS011;36594;45.192;5.722;2023-04-25T02:58:35;0.40;;;0.40;;
34196;SDS011;36594;45.192;5.722;2023-04-25T03:01:23;0.50;;;0.33;;
34196;SDS011;36594;45.192;5.722;2023-04-25T03:04:11;0.30;;;0.30;;
34196;SDS011;36594;45.192;5.722;2023-04-25T03:07:00;0.28;;;0.28;;
34196;SDS011;36594;45.192;5.722;2023-04-25T03:09:48;0.50;;;0.50;;
34196;SDS011;36594;45.192;5.722;2023-04-25T03:12:37;0.28;;;0.28;;
34196;SDS011;36594;45.192;5.722;2023-04-25T03:15:25;0.28;;;0.28;;
34196;SDS011;36594;45.192;5.722;2023-04-25T03:18:14;0.80;;;0.30;;
34196;SDS011;36594;45.192;5.722;2023-04-25T03:21:02;0.20;;;0.20;;
34196;SDS011;36594;45.192;5.722;2023-04-25T03:23:51;0.30;;;0.30;;
34196;SDS011;36594;45.192;5.722;2023-04-25T03:26:40;0.30;;;0.30;;
34196;SDS011;36594;45.192;5.722;2023-04-25T03:29:28;0.30;;;0.30;;
34196;SDS011;36594;45.192;5.722;2023-04-25T03:32:18;0.40;;;0.40;;
34196;SDS011;36594;45.192;5.722;2023-04-25T03:35:07;0.30;;;0.30;;
34196;SDS011;36594;45.192;5.722;2023-04-25T03:37:56;0.70;;;0.30;;
34196;SDS011;36594;45.192;5.722;2023-04-25T03:40:46;0.30;;;0.30;;
34196;SDS011;36594;45.192;5.722;2023-04-25T03:43:38;0.28;;;0.28;;
34196;SDS011;36594;45.192;5.722;2023-04-25T03:46:29;0.37;;;0.37;;
34196;SDS011;36594;45.192;5.722;2023-04-25T03:49:17;0.40;;;0.40;;
34196;SDS011;36594;45.192;5.722;2023-04-25T03:52:19;0.23;;;0.23;;
34196;SDS011;36594;45.192;5.722;2023-04-25T03:55:08;0.30;;;0.30;;
34196;SDS011;36594;45.192;5.722;2023-04-25T03:57:58;0.20;;;0.20;;
34196;SDS011;36594;45.192;5.722;2023-04-25T04:00:47;0.50;;;0.50;;
34196;SDS011;36594;45.192;5.722;2023-04-25T04:03:35;1.70;;;0.50;;
34196;SDS011;36594;45.192;5.722;2023-04-25T04:06:24;0.45;;;0.45;;
34196;SDS011;36594;45.192;5.722;2023-04-25T04:09:14;0.40;;;0.40;;
34196;SDS011;36594;45.192;5.722;2023-04-25T04:12:04;0.50;;;0.50;;
34196;SDS011;36594;45.192;5.722;2023-04-25T04:14:55;1.10;;;0.30;;
34196;SDS011;36594;45.192;5.722;2023-04-25T04:17:43;0.30;;;0.30;;
34196;SDS011;36594;45.192;5.722;2023-04-25T04:20:33;0.30;;;0.30;;
34196;SDS011;36594;45.192;5.722;2023-04-25T04:23:22;0.40;;;0.40;;
34196;SDS011;36594;45.192;5.722;2023-04-25T04:26:11;0.30;;;0.30;;
34196;SDS011;36594;45.192;5.722;2023-04-25T04:29:07;0.37;;;0.33;;
34196;SDS011;36594;45.192;5.722;2023-04-25T04:32:01;0.47;;;0.47;;
34196;SDS011;36594;45.192;5.722;2023-04-25T04:34:52;0.30;;;0.30;;
34196;SDS011;36594;45.192;5.722;2023-04-25T04:37:42;0.30;;;0.30;;
34196;SDS011;36594;45.192;5.722;2023-04-25T04:40:33;0.45;;;0.33;;
34196;SDS011;36594;45.192;5.722;2023-04-25T04:43:23;0.40;;;0.40;;
34196;SDS011;36594;45.192;5.722;2023-04-25T04:46:13;0.40;;;0.40;;
34196;SDS011;36594;45.192;5.722;2023-04-25T04:49:22;0.50;;;0.50;;
34196;SDS011;36594;45.192;5.722;2023-04-25T04:52:15;0.40;;;0.40;;
34196;SDS011;36594;45.192;5.722;2023-04-25T04:55:14;0.50;;;0.50;;
34196;SDS011;36594;45.192;5.722;2023-04-25T04:58:13;0.50;;;0.50;;
34196;SDS011;36594;45.192;5.722;2023-04-25T05:01:09;0.40;;;0.40;;
34196;SDS011;36594;45.192;5.722;2023-04-25T05:04:01;0.42;;;0.42;;
34196;SDS011;36594;45.192;5.722;2023-04-25T05:07:00;0.40;;;0.40;;
34196;SDS011;36594;45.192;5.722;2023-04-25T05:09:50;2.10;;;0.47;;
34196;SDS011;36594;45.192;5.722;2023-04-25T05:12:57;0.30;;;0.30;;
34196;SDS011;36594;45.192;5.722;2023-04-25T05:15:58;1.15;;;0.55;;
34196;SDS011;36594;45.192;5.722;2023-04-25T05:18:48;0.50;;;0.50;;
34196;SDS011;36594;45.192;5.722;2023-04-25T05:21:38;1.17;;;0.80;;
34196;SDS011;36594;45.192;5.722;2023-04-25T05:24:31;0.90;;;0.90;;
34196;SDS011;36594;45.192;5.722;2023-04-25T05:27:21;0.70;;;0.70;;
34196;SDS011;36594;45.192;5.722;2023-04-25T05:30:29;0.80;;;0.80;;
34196;SDS011;36594;45.192;5.722;2023-04-25T05:33:25;0.72;;;0.72;;
34196;SDS011;36594;45.192;5.722;2023-04-25T05:36:13;0.68;;;0.68;;
34196;SDS011;36594;45.192;5.722;2023-04-25T05:39:02;0.82;;;0.82;;
34196;SDS011;36594;45.192;5.722;2023-04-25T05:41:55;1.00;;;0.90;;
34196;SDS011;36594;45.192;5.722;2023-04-25T05:45:02;0.65;;;0.60;;
34196;SDS011;36594;45.192;5.722;2023-04-25T05:48:08;1.80;;;0.80;;
34196;SDS011;36594;45.192;5.722;2023-04-25T05:51:03;1.10;;;1.00;;
34196;SDS011;36594;45.192;5.722;2023-04-25T05:54:10;2.17;;;0.80;;
34196;SDS011;36594;45.192;5.722;2023-04-25T05:56:59;0.95;;;0.72;;
34196;SDS011;36594;45.192;5.722;2023-04-25T05:59:49;0.80;;;0.80;;
34196;SDS011;36594;45.192;5.722;2023-04-25T06:02:39;0.85;;;0.80;;
34196;SDS011;36594;45.192;5.722;2023-04-25T06:05:28;0.70;;;0.70;;
34196;SDS011;36594;45.192;5.722;2023-04-25T06:08:16;0.68;;;0.68;;
34196;SDS011;36594;45.192;5.722;2023-04-25T06:11:05;0.62;;;0.62;;
34196;SDS011;36594;45.192;5.722;2023-04-25T06:13:54;0.93;;;0.68;;
34196;SDS011;36594;45.192;5.722;2023-04-25T06:16:42;0.90;;;0.90;;
34196;SDS011;36594;45.192;5.722;2023-04-25T06:19:32;0.70;;;0.70;;
34196;SDS011;36594;45.192;5.722;2023-04-25T06:22:21;0.70;;;0.70;;
34196;SDS011;36594;45.192;5.722;2023-04-25T06:25:10;2.50;;;0.80;;
34196;SDS011;36594;45.192;5.722;2023-04-25T06:27:58;0.95;;;0.80;;
34196;SDS011;36594;45.192;5.722;2023-04-25T06:30:47;1.00;;;0.70;;
34196;SDS011;36594;45.192;5.722;2023-04-25T06:33:37;0.82;;;0.82;;
34196;SDS011;36594;45.192;5.722;2023-04-25T06:36:26;1.30;;;0.90;;
34196;SDS011;36594;45.192;5.722;2023-04-25T06:39:15;0.53;;;0.53;;
34196;SDS011;36594;45.192;5.722;2023-04-25T06:42:04;0.68;;;0.68;;
34196;SDS011;36594;45.192;5.722;2023-04-25T06:45:12;0.67;;;0.67;;
34196;SDS011;36594;45.192;5.722;2023-04-25T06:48:00;0.80;;;0.80;;
34196;SDS011;36594;45.192;5.722;2023-04-25T06:50:49;0.80;;;0.80;;
34196;SDS011;36594;45.192;5.722;2023-04-25T06:53:38;0.70;;;0.70;;
34196;SDS011;36594;45.192;5.722;2023-04-25T06:56:29;1.10;;;0.68;;
34196;SDS011;36594;45.192;5.722;2023-04-25T06:59:25;1.50;;;0.72;;
34196;SDS011;36594;45.192;5.722;2023-04-25T07:02:14;1.30;;;0.62;;
34196;SDS011;36594;45.192;5.722;2023-04-25T07:05:03;2.63;;;0.93;;
34196;SDS011;36594;45.192;5.722;2023-04-25T07:07:52;0.62;;;0.62;;
34196;SDS011;36594;45.192;5.722;2023-04-25T07:10:41;0.60;;;0.60;;
34196;SDS011;36594;45.192;5.722;2023-04-25T07:13:31;0.60;;;0.60;;
34196;SDS011;36594;45.192;5.722;2023-04-25T07:16:19;0.80;;;0.80;;
34196;SDS011;36594;45.192;5.722;2023-04-25T07:19:09;1.40;;;0.60;;
34196;SDS011;36594;45.192;5.722;2023-04-25T07:21:57;0.90;;;0.60;;
34196;SDS011;36594;45.192;5.722;2023-04-25T07:24:47;0.70;;;0.70;;
34196;SDS011;36594;45.192;5.722;2023-04-25T07:27:35;1.07;;;0.88;;
34196;SDS011;36594;45.192;5.722;2023-04-25T07:30:25;0.90;;;0.80;;
34196;SDS011;36594;45.192;5.722;2023-04-25T07:33:14;0.60;;;0.60;;
34196;SDS011;36594;45.192;5.722;2023-04-25T07:36:04;0.60;;;0.60;;
34196;SDS011;36594;45.192;5.722;2023-04-25T07:38:54;0.93;;;0.88;;
34196;SDS011;36594;45.192;5.722;2023-04-25T07:41:42;0.50;;;0.50;;
34196;SDS011;36594;45.192;5.722;2023-04-25T07:44:33;0.57;;;0.57;;
34196;SDS011;36594;45.192;5.722;2023-04-25T07:47:27;1.00;;;0.97;;
34196;SDS011;36594;45.192;5.722;2023-04-25T07:50:16;0.68;;;0.68;;
34196;SDS011;36594;45.192;5.722;2023-04-25T07:53:06;0.50;;;0.50;;
34196;SDS011;36594;45.192;5.722;2023-04-25T07:55:57;1.40;;;0.78;;
34196;SDS011;36594;45.192;5.722;2023-04-25T07:58:46;0.67;;;0.67;;
34196;SDS011;36594;45.192;5.722;2023-04-25T08:01:35;0.63;;;0.63;;
34196;SDS011;36594;45.192;5.722;2023-04-25T08:04:25;0.90;;;0.70;;
34196;SDS011;36594;45.192;5.722;2023-04-25T08:07:15;0.70;;;0.70;;
34196;SDS011;36594;45.192;5.722;2023-04-25T08:10:11;0.57;;;0.57;;
34196;SDS011;36594;45.192;5.722;2023-04-25T08:13:01;0.80;;;0.78;;
34196;SDS011;36594;45.192;5.722;2023-04-25T08:15:49;0.80;;;0.80;;
34196;SDS011;36594;45.192;5.722;2023-04-25T08:18:37;0.70;;;0.70;;
34196;SDS011;36594;45.192;5.722;2023-04-25T08:21:27;0.80;;;0.80;;
34196;SDS011;36594;45.192;5.722;2023-04-25T08:24:16;0.60;;;0.60;;
34196;SDS011;36594;45.192;5.722;2023-04-25T08:27:05;0.60;;;0.60;;
34196;SDS011;36594;45.192;5.722;2023-04-25T08:29:55;0.68;;;0.62;;
34196;SDS011;36594;45.192;5.722;2023-04-25T08:32:44;0.72;;;0.72;;
34196;SDS011;36594;45.192;5.722;2023-04-25T08:35:46;0.80;;;0.80;;
34196;SDS011;36594;45.192;5.722;2023-04-25T08:38:35;0.70;;;0.70;;
34196;SDS011;36594;45.192;5.722;2023-04-25T08:41:25;0.70;;;0.70;;
34196;SDS011;36594;45.192;5.722;2023-04-25T08:44:14;0.70;;;0.70;;
34196;SDS011;36594;45.192;5.722;2023-04-25T08:47:05;0.60;;;0.60;;
34196;SDS011;36594;45.192;5.722;2023-04-25T08:49:55;0.82;;;0.80;;
34196;SDS011;36594;45.192;5.722;2023-04-25T08:52:46;0.82;;;0.82;;
34196;SDS011;36594;45.192;5.722;2023-04-25T08:55:38;0.75;;;0.75;;
34196;SDS011;36594;45.192;5.722;2023-04-25T08:58:29;0.70;;;0.70;;
34196;SDS011;36594;45.192;5.722;2023-04-25T09:01:19;0.78;;;0.72;;
34196;SDS011;36594;45.192;5.722;2023-04-25T09:04:09;0.85;;;0.85;;
34196;SDS011;36594;45.192;5.722;2023-04-25T09:07:00;1.50;;;0.80;;
34196;SDS011;36594;45.192;5.722;2023-04-25T09:09:49;0.80;;;0.80;;
34196;SDS011;36594;45.192;5.722;2023-04-25T09:12:39;0.85;;;0.82;;
34196;SDS011;36594;45.192;5.722;2023-04-25T09:15:27;0.80;;;0.80;;
34196;SDS011;36594;45.192;5.722;2023-04-25T09:18:31;0.60;;;0.50;;
34196;SDS011;36594;45.192;5.722;2023-04-25T09:21:22;0.80;;;0.80;;
34196;SDS011;36594;45.192;5.722;2023-04-25T09:24:11;0.80;;;0.80;;
34196;SDS011;36594;45.192;5.722;2023-04-25T09:26:59;0.80;;;0.80;;
34196;SDS011;36594;45.192;5.722;2023-04-25T09:29:55;0.90;;;0.90;;
34196;SDS011;36594;45.192;5.722;2023-04-25T09:32:48;0.80;;;0.80;;
34196;SDS011;36594;45.192;5.722;2023-04-25T09:35:37;1.25;;;0.88;;
34196;SDS011;36594;45.192;5.722;2023-04-25T09:38:28;0.85;;;0.85;;
34196;SDS011;36594;45.192;5.722;2023-04-25T09:41:23;0.88;;;0.88;;
34196;SDS011;36594;45.192;5.722;2023-04-25T09:44:14;0.70;;;0.70;;
34196;SDS011;36594;45.192;5.722;2023-04-25T09:47:02;1.07;;;0.90;;
34196;SDS011;36594;45.192;5.722;2023-04-25T09:49:52;0.90;;;0.90;;
34196;SDS011;36594;45.192;5.722;2023-04-25T09:52:42;0.70;;;0.70;;
34196;SDS011;36594;45.192;5.722;2023-04-25T09:55:32;1.20;;;1.10;;
34196;SDS011;36594;45.192;5.722;2023-04-25T09:58:24;1.10;;;1.05;;
34196;SDS011;36594;45.192;5.722;2023-04-25T10:01:13;0.93;;;0.93;;
34196;SDS011;36594;45.192;5.722;2023-04-25T10:04:05;0.90;;;0.90;;
34196;SDS011;36594;45.192;5.722;2023-04-25T10:06:57;0.70;;;0.70;;
34196;SDS011;36594;45.192;5.722;2023-04-25T10:09:48;1.30;;;0.83;;
34196;SDS011;36594;45.192;5.722;2023-04-25T10:12:38;0.98;;;0.98;;
34196;SDS011;36594;45.192;5.722;2023-04-25T10:15:29;0.82;;;0.80;;
34196;SDS011;36594;45.192;5.722;2023-04-25T10:18:20;0.80;;;0.80;;
34196;SDS011;36594;45.192;5.722;2023-04-25T10:21:08;2.33;;;0.80;;
34196;SDS011;36594;45.192;5.722;2023-04-25T10:23:59;0.85;;;0.85;;
34196;SDS011;36594;45.192;5.722;2023-04-25T10:26:49;1.77;;;1.10;;
34196;SDS011;36594;45.192;5.722;2023-04-25T10:29:39;0.98;;;0.98;;
34196;SDS011;36594;45.192;5.722;2023-04-25T10:32:30;0.97;;;0.97;;
34196;SDS011;36594;45.192;5.722;2023-04-25T10:35:28;0.93;;;0.93;;
34196;SDS011;36594;45.192;5.722;2023-04-25T10:38:15;1.77;;;1.37;;
34196;SDS011;36594;45.192;5.722;2023-04-25T10:41:04;0.90;;;0.90;;
34196;SDS011;36594;45.192;5.722;2023-04-25T10:44:01;2.05;;;1.00;;
34196;SDS011;36594;45.192;5.722;2023-04-25T10:46:52;1.60;;;1.15;;
34196;SDS011;36594;45.192;5.722;2023-04-25T10:49:46;1.02;;;1.02;;
34196;SDS011;36594;45.192;5.722;2023-04-25T10:52:38;0.85;;;0.85;;
34196;SDS011;36594;45.192;5.722;2023-04-25T10:55:27;1.00;;;0.93;;
34196;SDS011;36594;45.192;5.722;2023-04-25T10:58:21;1.00;;;1.00;;
34196;SDS011;36594;45.192;5.722;2023-04-25T11:01:09;1.22;;;1.12;;
34196;SDS011;36594;45.192;5.722;2023-04-25T11:03:59;0.90;;;0.90;;
34196;SDS011;36594;45.192;5.722;2023-04-25T11:09:52;0.90;;;0.90;;
34196;SDS011;36594;45.192;5.722;2023-04-25T11:12:41;1.17;;;1.00;;
34196;SDS011;36594;45.192;5.722;2023-04-25T11:15:29;0.75;;;0.75;;
34196;SDS011;36594;45.192;5.722;2023-04-25T11:18:18;1.17;;;1.07;;
34196;SDS011;36594;45.192;5.722;2023-04-25T11:21:07;1.50;;;1.00;;
34196;SDS011;36594;45.192;5.722;2023-04-25T11:23:56;0.90;;;0.90;;
34196;SDS011;36594;45.192;5.722;2023-04-25T11:26:46;1.17;;;1.12;;
34196;SDS011;36594;45.192;5.722;2023-04-25T11:29:37;1.12;;;1.12;;
34196;SDS011;36594;45.192;5.722;2023-04-25T11:32:25;1.32;;;1.22;;
34196;SDS011;36594;45.192;5.722;2023-04-25T11:35:14;1.10;;;1.10;;
34196;SDS011;36594;45.192;5.722;2023-04-25T11:38:04;0.90;;;0.90;;
34196;SDS011;36594;45.192;5.722;2023-04-25T11:40:52;1.03;;;1.03;;
34196;SDS011;36594;45.192;5.722;2023-04-25T11:43:42;1.30;;;1.20;;
34196;SDS011;36594;45.192;5.722;2023-04-25T11:46:33;3.30;;;1.15;;
34196;SDS011;36594;45.192;5.722;2023-04-25T11:49:21;1.00;;;1.00;;
34196;SDS011;36594;45.192;5.722;2023-04-25T11:52:11;1.30;;;1.20;;
34196;SDS011;36594;45.192;5.722;2023-04-25T11:54:59;1.00;;;1.00;;
34196;SDS011;36594;45.192;5.722;2023-04-25T11:57:48;0.93;;;0.90;;
34196;SDS011;36594;45.192;5.722;2023-04-25T12:00:37;1.40;;;1.22;;
34196;SDS011;36594;45.192;5.722;2023-04-25T12:03:29;1.70;;;1.20;;
34196;SDS011;36594;45.192;5.722;2023-04-25T12:06:19;1.45;;;1.20;;
34196;SDS011;36594;45.192;5.722;2023-04-25T12:09:08;1.15;;;1.10;;
34196;SDS011;36594;45.192;5.722;2023-04-25T12:12:01;1.17;;;1.05;;
34196;SDS011;36594;45.192;5.722;2023-04-25T12:14:49;1.15;;;1.15;;
34196;SDS011;36594;45.192;5.722;2023-04-25T12:17:44;1.23;;;1.20;;
34196;SDS011;36594;45.192;5.722;2023-04-25T12:20:37;1.20;;;1.10;;
34196;SDS011;36594;45.192;5.722;2023-04-25T12:23:26;1.22;;;1.10;;
34196;SDS011;36594;45.192;5.722;2023-04-25T12:26:16;1.30;;;1.20;;
34196;SDS011;36594;45.192;5.722;2023-04-25T12:29:15;1.40;;;1.00;;
34196;SDS011;36594;45.192;5.722;2023-04-25T12:32:10;1.10;;;1.10;;
34196;SDS011;36594;45.192;5.722;2023-04-25T12:34:59;0.98;;;0.98;;
34196;SDS011;36594;45.192;5.722;2023-04-25T12:37:48;0.70;;;0.70;;
34196;SDS011;36594;45.192;5.722;2023-04-25T12:40:36;1.80;;;1.20;;
34196;SDS011;36594;45.192;5.722;2023-04-25T12:43:24;0.72;;;0.72;;
34196;SDS011;36594;45.192;5.722;2023-04-25T12:46:13;1.00;;;1.00;;
34196;SDS011;36594;45.192;5.722;2023-04-25T12:49:01;0.90;;;0.90;;
34196;SDS011;36594;45.192;5.722;2023-04-25T12:51:50;1.10;;;1.00;;
34196;SDS011;36594;45.192;5.722;2023-04-25T12:54:38;1.00;;;1.00;;
34196;SDS011;36594;45.192;5.722;2023-04-25T12:57:27;0.95;;;0.90;;
34196;SDS011;36594;45.192;5.722;2023-04-25T13:00:15;0.82;;;0.82;;
34196;SDS011;36594;45.192;5.722;2023-04-25T13:03:06;1.30;;;1.20;;
34196;SDS011;36594;45.192;5.722;2023-04-25T13:05:56;1.05;;;1.00;;
34196;SDS011;36594;45.192;5.722;2023-04-25T13:08:44;1.17;;;1.07;;
34196;SDS011;36594;45.192;5.722;2023-04-25T13:11:33;1.17;;;1.17;;
34196;SDS011;36594;45.192;5.722;2023-04-25T13:14:34;1.03;;;1.03;;
34196;SDS011;36594;45.192;5.722;2023-04-25T13:17:23;1.02;;;1.02;;
34196;SDS011;36594;45.192;5.722;2023-04-25T13:20:11;0.90;;;0.90;;
34196;SDS011;36594;45.192;5.722;2023-04-25T13:23:02;2.12;;;1.82;;
34196;SDS011;36594;45.192;5.722;2023-04-25T13:25:51;2.15;;;1.95;;
34196;SDS011;36594;45.192;5.722;2023-04-25T13:28:39;2.20;;;2.10;;
34196;SDS011;36594;45.192;5.722;2023-04-25T13:31:28;2.12;;;2.00;;
34196;SDS011;36594;45.192;5.722;2023-04-25T13:34:16;2.25;;;2.05;;
34196;SDS011;36594;45.192;5.722;2023-04-25T13:37:05;2.00;;;1.90;;
34196;SDS011;36594;45.192;5.722;2023-04-25T13:39:53;1.90;;;1.80;;
34196;SDS011;36594;45.192;5.722;2023-04-25T13:42:42;2.08;;;1.98;;
34196;SDS011;36594;45.192;5.722;2023-04-25T13:45:32;2.08;;;1.98;;
34196;SDS011;36594;45.192;5.722;2023-04-25T13:48:21;2.37;;;1.53;;
34196;SDS011;36594;45.192;5.722;2023-04-25T13:51:10;1.55;;;1.50;;
34196;SDS011;36594;45.192;5.722;2023-04-25T13:53:58;1.47;;;1.40;;
34196;SDS011;36594;45.192;5.722;2023-04-25T13:56:46;1.90;;;1.80;;
34196;SDS011;36594;45.192;5.722;2023-04-25T13:59:35;2.40;;;1.37;;
34196;SDS011;36594;45.192;5.722;2023-04-25T14:02:24;1.80;;;1.70;;
34196;SDS011;36594;45.192;5.722;2023-04-25T14:05:12;1.98;;;1.52;;
34196;SDS011;36594;45.192;5.722;2023-04-25T14:08:01;1.60;;;1.50;;
34196;SDS011;36594;45.192;5.722;2023-04-25T14:10:49;1.55;;;1.45;;
34196;SDS011;36594;45.192;5.722;2023-04-25T14:13:37;1.40;;;1.40;;
34196;SDS011;36594;45.192;5.722;2023-04-25T14:16:26;1.20;;;1.20;;
34196;SDS011;36594;45.192;5.722;2023-04-25T14:19:14;1.60;;;1.50;;
34196;SDS011;36594;45.192;5.722;2023-04-25T14:22:04;1.20;;;1.20;;
34196;SDS011;36594;45.192;5.722;2023-04-25T14:24:52;1.30;;;1.30;;
34196;SDS011;36594;45.192;5.722;2023-04-25T14:27:41;1.20;;;1.20;;
34196;SDS011;36594;45.192;5.722;2023-04-25T14:30:31;1.30;;;1.30;;
34196;SDS011;36594;45.192;5.722;2023-04-25T14:33:19;1.20;;;1.20;;
34196;SDS011;36594;45.192;5.722;2023-04-25T14:36:07;1.32;;;1.30;;
34196;SDS011;36594;45.192;5.722;2023-04-25T14:38:56;1.50;;;1.40;;
34196;SDS011;36594;45.192;5.722;2023-04-25T14:41:45;1.63;;;1.53;;
34196;SDS011;36594;45.192;5.722;2023-04-25T14:44:34;1.20;;;1.20;;
34196;SDS011;36594;45.192;5.722;2023-04-25T14:47:22;1.40;;;1.30;;
34196;SDS011;36594;45.192;5.722;2023-04-25T14:50:11;1.10;;;1.10;;
34196;SDS011;36594;45.192;5.722;2023-04-25T14:52:59;1.20;;;1.20;;
34196;SDS011;36594;45.192;5.722;2023-04-25T14:55:48;1.25;;;1.20;;
34196;SDS011;36594;45.192;5.722;2023-04-25T14:58:36;1.15;;;1.15;;
34196;SDS011;36594;45.192;5.722;2023-04-25T15:01:27;1.32;;;1.22;;
34196;SDS011;36594;45.192;5.722;2023-04-25T15:04:15;1.40;;;1.30;;
34196;SDS011;36594;45.192;5.722;2023-04-25T15:07:05;1.30;;;1.22;;
34196;SDS011;36594;45.192;5.722;2023-04-25T15:09:53;1.20;;;1.20;;
34196;SDS011;36594;45.192;5.722;2023-04-25T15:12:43;1.10;;;1.10;;
34196;SDS011;36594;45.192;5.722;2023-04-25T15:15:32;1.10;;;1.10;;
34196;SDS011;36594;45.192;5.722;2023-04-25T15:18:20;0.95;;;0.95;;
34196;SDS011;36594;45.192;5.722;2023-04-25T15:21:12;1.17;;;1.10;;
34196;SDS011;36594;45.192;5.722;2023-04-25T15:24:01;1.10;;;1.10;;
34196;SDS011;36594;45.192;5.722;2023-04-25T15:26:49;1.40;;;1.30;;
34196;SDS011;36594;45.192;5.722;2023-04-25T15:29:38;1.00;;;1.00;;
34196;SDS011;36594;45.192;5.722;2023-04-25T15:32:26;1.10;;;1.10;;
34196;SDS011;36594;45.192;5.722;2023-04-25T15:35:14;1.20;;;1.10;;
34196;SDS011;36594;45.192;5.722;2023-04-25T15:38:03;1.00;;;1.00;;
34196;SDS011;36594;45.192;5.722;2023-04-25T15:40:51;1.30;;;1.20;;
34196;SDS011;36594;45.192;5.722;2023-04-25T15:43:40;1.00;;;1.00;;
34196;SDS011;36594;45.192;5.722;2023-04-25T15:46:28;1.40;;;1.10;;
34196;SDS011;36594;45.192;5.722;2023-04-25T15:49:16;1.00;;;1.00;;
34196;SDS011;36594;45.192;5.722;2023-04-25T15:52:06;1.00;;;1.00;;
34196;SDS011;36594;45.192;5.722;2023-04-25T15:54:54;1.07;;;1.07;;
34196;SDS011;36594;45.192;5.722;2023-04-25T15:57:43;1.10;;;1.00;;
34196;SDS011;36594;45.192;5.722;2023-04-25T16:00:31;1.02;;;1.00;;
34196;SDS011;36594;45.192;5.722;2023-04-25T16:03:21;1.00;;;1.00;;
34196;SDS011;36594;45.192;5.722;2023-04-25T16:06:09;1.02;;;0.90;;
34196;SDS011;36594;45.192;5.722;2023-04-25T16:08:58;1.12;;;1.12;;
34196;SDS011;36594;45.192;5.722;2023-04-25T16:11:47;1.00;;;1.00;;
34196;SDS011;36594;45.192;5.722;2023-04-25T16:14:36;1.00;;;1.00;;
34196;SDS011;36594;45.192;5.722;2023-04-25T16:17:25;1.10;;;1.10;;
34196;SDS011;36594;45.192;5.722;2023-04-25T16:20:16;1.20;;;1.20;;
34196;SDS011;36594;45.192;5.722;2023-04-25T16:23:04;1.20;;;1.10;;
34196;SDS011;36594;45.192;5.722;2023-04-25T16:25:53;1.07;;;1.07;;
34196;SDS011;36594;45.192;5.722;2023-04-25T16:28:41;0.72;;;0.72;;
34196;SDS011;36594;45.192;5.722;2023-04-25T16:31:30;1.00;;;1.00;;
34196;SDS011;36594;45.192;5.722;2023-04-25T16:34:20;1.00;;;1.00;;
34196;SDS011;36594;45.192;5.722;2023-04-25T16:37:08;1.00;;;1.00;;
34196;SDS011;36594;45.192;5.722;2023-04-25T16:39:57;0.97;;;0.97;;
34196;SDS011;36594;45.192;5.722;2023-04-25T16:42:45;1.00;;;1.00;;
34196;SDS011;36594;45.192;5.722;2023-04-25T16:45:33;0.90;;;0.90;;
34196;SDS011;36594;45.192;5.722;2023-04-25T16:48:22;0.93;;;0.93;;
34196;SDS011;36594;45.192;5.722;2023-04-25T16:51:10;1.10;;;1.10;;
34196;SDS011;36594;45.192;5.722;2023-04-25T16:53:59;1.02;;;1.00;;
34196;SDS011;36594;45.192;5.722;2023-04-25T16:56:48;0.90;;;0.90;;
34196;SDS011;36594;45.192;5.722;2023-04-25T16:59:38;0.70;;;0.70;;
34196;SDS011;36594;45.192;5.722;2023-04-25T17:02:27;0.90;;;0.90;;
34196;SDS011;36594;45.192;5.722;2023-04-25T17:05:15;1.00;;;1.00;;
34196;SDS011;36594;45.192;5.722;2023-04-25T17:08:03;0.90;;;0.90;;